DETAG EDDG-EDDG
Flight info
| Callsign | DETAG |
|---|---|
| Flight time | 0h 14m |
| Altitude | |
| Route | |
| Aircraft | C172 |
Departure
| Time | 2026-04-20 16:29 |
|---|---|
| Airport | Münster Osnabrück Airport (EDDG) |
Arrival
| Time | 2026-04-20 16:43 |
|---|---|
| Airport | Münster Osnabrück Airport (EDDG) |
| Time | Latitude | Longitude | Altitude | Speed | Heading |
|---|---|---|---|---|---|
| 2026-04-20 16:17 | 52.13153 | 7.68306 | 160 ft | 0 kts | 272° |
| 2026-04-20 16:22 | 52.13153 | 7.68305 | 160 ft | 1 kts | 272° |
| 2026-04-20 16:22 | 52.13163 | 7.68270 | 160 ft | 0 kts | 329° |
| 2026-04-20 16:23 | 52.13178 | 7.68272 | 160 ft | 5 kts | 36° |
| 2026-04-20 16:23 | 52.13202 | 7.68344 | 161 ft | 4 kts | 26° |
| 2026-04-20 16:23 | 52.13234 | 7.68342 | 160 ft | 6 kts | 4° |
| 2026-04-20 16:23 | 52.13275 | 7.68421 | 161 ft | 13 kts | 69° |
| 2026-04-20 16:24 | 52.13308 | 7.68577 | 160 ft | 15 kts | 71° |
| 2026-04-20 16:24 | 52.13346 | 7.68756 | 160 ft | 16 kts | 71° |
| 2026-04-20 16:24 | 52.13382 | 7.68927 | 160 ft | 15 kts | 72° |
| 2026-04-20 16:24 | 52.13416 | 7.69090 | 160 ft | 15 kts | 71° |
| 2026-04-20 16:25 | 52.13455 | 7.69273 | 160 ft | 18 kts | 70° |
| 2026-04-20 16:25 | 52.13490 | 7.69440 | 160 ft | 13 kts | 73° |
| 2026-04-20 16:25 | 52.13516 | 7.69563 | 160 ft | 10 kts | 71° |
| 2026-04-20 16:25 | 52.13538 | 7.69667 | 160 ft | 9 kts | 70° |
| 2026-04-20 16:26 | 52.13562 | 7.69779 | 159 ft | 12 kts | 69° |
| 2026-04-20 16:26 | 52.13594 | 7.69930 | 159 ft | 15 kts | 65° |
| 2026-04-20 16:26 | 52.13647 | 7.70024 | 159 ft | 8 kts | 23° |
| 2026-04-20 16:26 | 52.13679 | 7.70035 | 159 ft | 0 kts | 2° |
| 2026-04-20 16:28 | 52.13709 | 7.70028 | 159 ft | 10 kts | 347° |
| 2026-04-20 16:28 | 52.13767 | 7.69934 | 160 ft | 15 kts | 264° |
| 2026-04-20 16:28 | 52.13721 | 7.69690 | 160 ft | 35 kts | 251° |
| 2026-04-20 16:28 | 52.13597 | 7.69121 | 163 ft | 71 kts | 248° |
| 2026-04-20 16:29 | 52.13432 | 7.68311 | 277 ft | 80 kts | 256° |
| 2026-04-20 16:29 | 52.13252 | 7.67452 | 455 ft | 80 kts | 252° |
| 2026-04-20 16:29 | 52.13003 | 7.66575 | 586 ft | 91 kts | 234° |
| 2026-04-20 16:29 | 52.12463 | 7.66164 | 802 ft | 87 kts | 181° |
| 2026-04-20 16:30 | 52.11865 | 7.66311 | 934 ft | 88 kts | 135° |
| 2026-04-20 16:30 | 52.11707 | 7.67196 | 967 ft | 90 kts | 75° |
| 2026-04-20 16:30 | 52.11823 | 7.68276 | 945 ft | 99 kts | 72° |
| 2026-04-20 16:30 | 52.12008 | 7.69317 | 932 ft | 94 kts | 60° |
| 2026-04-20 16:31 | 52.12363 | 7.70083 | 869 ft | 82 kts | 41° |
| 2026-04-20 16:31 | 52.12774 | 7.70712 | 740 ft | 76 kts | 27° |
| 2026-04-20 16:31 | 52.13251 | 7.70908 | 570 ft | 74 kts | 0° |
| 2026-04-20 16:31 | 52.13691 | 7.70593 | 409 ft | 73 kts | 305° |
| 2026-04-20 16:32 | 52.13739 | 7.69766 | 249 ft | 80 kts | 248° |
| 2026-04-20 16:32 | 52.13567 | 7.68971 | 165 ft | 66 kts | 252° |
| 2026-04-20 16:32 | 52.13415 | 7.68275 | 180 ft | 73 kts | 253° |
| 2026-04-20 16:32 | 52.13265 | 7.67481 | 330 ft | 75 kts | 255° |
| 2026-04-20 16:33 | 52.13083 | 7.66625 | 480 ft | 84 kts | 254° |
| 2026-04-20 16:33 | 52.12685 | 7.65959 | 690 ft | 91 kts | 190° |
| 2026-04-20 16:33 | 52.12042 | 7.65998 | 849 ft | 96 kts | 154° |
| 2026-04-20 16:33 | 52.11705 | 7.66781 | 1002 ft | 86 kts | 84° |
| 2026-04-20 16:34 | 52.11792 | 7.67773 | 1003 ft | 92 kts | 71° |
| 2026-04-20 16:34 | 52.11951 | 7.68769 | 1038 ft | 90 kts | 70° |
| 2026-04-20 16:34 | 52.12101 | 7.69769 | 957 ft | 89 kts | 67° |
| 2026-04-20 16:34 | 52.12395 | 7.70583 | 824 ft | 83 kts | 46° |
| 2026-04-20 16:35 | 52.12855 | 7.71102 | 654 ft | 81 kts | 17° |
| 2026-04-20 16:35 | 52.13391 | 7.71057 | 501 ft | 83 kts | 344° |
| 2026-04-20 16:35 | 52.13773 | 7.70459 | 397 ft | 84 kts | 280° |
| 2026-04-20 16:35 | 52.13682 | 7.69508 | 226 ft | 87 kts | 252° |
| 2026-04-20 16:36 | 52.13504 | 7.68663 | 160 ft | 67 kts | 253° |
| 2026-04-20 16:36 | 52.13340 | 7.67908 | 242 ft | 74 kts | 262° |
| 2026-04-20 16:36 | 52.13199 | 7.67043 | 426 ft | 81 kts | 253° |
| 2026-04-20 16:36 | 52.12968 | 7.66207 | 665 ft | 81 kts | 244° |
| 2026-04-20 16:37 | 52.12474 | 7.65699 | 766 ft | 99 kts | 174° |
| 2026-04-20 16:37 | 52.11844 | 7.66084 | 837 ft | 97 kts | 118° |
| 2026-04-20 16:37 | 52.11774 | 7.67104 | 907 ft | 88 kts | 75° |
| 2026-04-20 16:37 | 52.11904 | 7.68038 | 982 ft | 83 kts | 67° |
| 2026-04-20 16:38 | 52.12112 | 7.68910 | 995 ft | 86 kts | 57° |
| 2026-04-20 16:38 | 52.12436 | 7.69763 | 894 ft | 89 kts | 50° |
| 2026-04-20 16:38 | 52.12786 | 7.70408 | 897 ft | 75 kts | 39° |
| 2026-04-20 16:38 | 52.13197 | 7.71040 | 713 ft | 85 kts | 45° |
| 2026-04-20 16:39 | 52.13651 | 7.71465 | 654 ft | 80 kts | 356° |
| 2026-04-20 16:39 | 52.14093 | 7.70915 | 518 ft | 90 kts | 284° |
| 2026-04-20 16:39 | 52.13808 | 7.69967 | 336 ft | 98 kts | 244° |
| 2026-04-20 16:39 | 52.13584 | 7.68902 | 377 ft | 99 kts | 256° |
| 2026-04-20 16:40 | 52.13369 | 7.67830 | 490 ft | 97 kts | 256° |
| 2026-04-20 16:40 | 52.13143 | 7.66847 | 675 ft | 90 kts | 250° |
| 2026-04-20 16:40 | 52.12704 | 7.66129 | 808 ft | 95 kts | 200° |
| 2026-04-20 16:40 | 52.12012 | 7.66034 | 816 ft | 104 kts | 171° |
| 2026-04-20 16:41 | 52.11393 | 7.66532 | 857 ft | 97 kts | 119° |
| 2026-04-20 16:41 | 52.11355 | 7.67546 | 811 ft | 94 kts | 68° |
| 2026-04-20 16:41 | 52.11547 | 7.68561 | 832 ft | 89 kts | 62° |
| 2026-04-20 16:41 | 52.11761 | 7.69496 | 803 ft | 90 kts | 65° |
| 2026-04-20 16:42 | 52.11954 | 7.70416 | 721 ft | 82 kts | 66° |
| 2026-04-20 16:42 | 52.12219 | 7.71139 | 672 ft | 68 kts | 13° |
| 2026-04-20 16:42 | 52.12688 | 7.70969 | 561 ft | 71 kts | 356° |
| 2026-04-20 16:42 | 52.13176 | 7.70935 | 503 ft | 68 kts | 359° |
| 2026-04-20 16:43 | 52.13644 | 7.70760 | 416 ft | 72 kts | 317° |
| 2026-04-20 16:43 | 52.13757 | 7.69916 | 271 ft | 83 kts | 253° |
| 2026-04-20 16:43 | 52.13585 | 7.69062 | 173 ft | 72 kts | 256° |
| 2026-04-20 16:43 | 52.13455 | 7.68419 | 160 ft | 40 kts | 251° |
| 2026-04-20 16:44 | 52.13370 | 7.68260 | 160 ft | 12 kts | 175° |
| 2026-04-20 16:44 | 52.13309 | 7.68290 | 160 ft | 4 kts | 159° |
| 2026-04-20 16:44 | 52.13281 | 7.68307 | 160 ft | 10 kts | 159° |
| 2026-04-20 16:45 | 52.13216 | 7.68346 | 160 ft | 5 kts | 167° |
| 2026-04-20 16:45 | 52.13196 | 7.68327 | 161 ft | 4 kts | 247° |
| 2026-04-20 16:45 | 52.13176 | 7.68280 | 160 ft | 5 kts | 188° |
| 2026-04-20 16:45 | 52.13157 | 7.68255 | 160 ft | 3 kts | 277° |
| 2026-04-20 16:46 | 52.13157 | 7.68239 | 160 ft | 0 kts | 271° |